sensor_id;sensor_type;location;lat;lon;timestamp;P1;durP1;ratioP1;P2;durP2;ratioP2
69847;SDS011;57143;55.940;37.496;2022-09-09T00:01:37;6.28;;;1.55;;
69847;SDS011;57143;55.940;37.496;2022-09-09T00:04:15;5.47;;;1.70;;
69847;SDS011;57143;55.940;37.496;2022-09-09T00:06:55;7.25;;;1.60;;
69847;SDS011;57143;55.940;37.496;2022-09-09T00:09:29;5.85;;;1.60;;
69847;SDS011;57143;55.940;37.496;2022-09-09T00:12:06;5.95;;;1.27;;
69847;SDS011;57143;55.940;37.496;2022-09-09T00:14:40;7.22;;;1.50;;
69847;SDS011;57143;55.940;37.496;2022-09-09T00:17:16;8.03;;;1.70;;
69847;SDS011;57143;55.940;37.496;2022-09-09T00:19:53;6.38;;;1.45;;
69847;SDS011;57143;55.940;37.496;2022-09-09T00:22:23;6.47;;;1.70;;
69847;SDS011;57143;55.940;37.496;2022-09-09T00:24:52;5.15;;;1.50;;
69847;SDS011;57143;55.940;37.496;2022-09-09T00:27:24;5.95;;;1.50;;
69847;SDS011;57143;55.940;37.496;2022-09-09T00:29:58;5.00;;;1.60;;
69847;SDS011;57143;55.940;37.496;2022-09-09T00:32:29;5.90;;;1.55;;
69847;SDS011;57143;55.940;37.496;2022-09-09T00:35:02;5.68;;;1.10;;
69847;SDS011;57143;55.940;37.496;2022-09-09T00:37:41;6.03;;;1.58;;
69847;SDS011;57143;55.940;37.496;2022-09-09T00:40:15;5.63;;;1.50;;
69847;SDS011;57143;55.940;37.496;2022-09-09T00:42:54;4.80;;;1.33;;
69847;SDS011;57143;55.940;37.496;2022-09-09T00:45:45;6.28;;;2.00;;
69847;SDS011;57143;55.940;37.496;2022-09-09T00:48:33;5.00;;;1.60;;
69847;SDS011;57143;55.940;37.496;2022-09-09T00:51:10;4.70;;;1.15;;
69847;SDS011;57143;55.940;37.496;2022-09-09T00:53:54;5.88;;;1.65;;
69847;SDS011;57143;55.940;37.496;2022-09-09T00:56:35;5.10;;;1.17;;
69847;SDS011;57143;55.940;37.496;2022-09-09T00:59:12;5.15;;;1.40;;
69847;SDS011;57143;55.940;37.496;2022-09-09T01:01:51;5.13;;;1.23;;
69847;SDS011;57143;55.940;37.496;2022-09-09T01:04:22;5.60;;;1.30;;
69847;SDS011;57143;55.940;37.496;2022-09-09T01:06:58;9.50;;;1.60;;
69847;SDS011;57143;55.940;37.496;2022-09-09T01:09:38;6.17;;;1.67;;
69847;SDS011;57143;55.940;37.496;2022-09-09T01:12:23;5.18;;;1.17;;
69847;SDS011;57143;55.940;37.496;2022-09-09T01:14:54;5.30;;;1.30;;
69847;SDS011;57143;55.940;37.496;2022-09-09T01:17:30;5.38;;;1.23;;
69847;SDS011;57143;55.940;37.496;2022-09-09T01:20:03;5.85;;;1.33;;
69847;SDS011;57143;55.940;37.496;2022-09-09T01:22:40;6.07;;;1.50;;
69847;SDS011;57143;55.940;37.496;2022-09-09T01:25:22;5.95;;;1.45;;
69847;SDS011;57143;55.940;37.496;2022-09-09T01:27:58;4.40;;;1.00;;
69847;SDS011;57143;55.940;37.496;2022-09-09T01:30:28;6.35;;;1.15;;
69847;SDS011;57143;55.940;37.496;2022-09-09T01:32:56;4.90;;;1.40;;
69847;SDS011;57143;55.940;37.496;2022-09-09T01:35:34;8.53;;;1.60;;
69847;SDS011;57143;55.940;37.496;2022-09-09T01:38:06;4.15;;;0.90;;
69847;SDS011;57143;55.940;37.496;2022-09-09T01:40:33;5.55;;;1.30;;
69847;SDS011;57143;55.940;37.496;2022-09-09T01:43:02;5.15;;;1.25;;
69847;SDS011;57143;55.940;37.496;2022-09-09T01:45:30;6.20;;;1.40;;
69847;SDS011;57143;55.940;37.496;2022-09-09T01:47:57;5.47;;;1.13;;
69847;SDS011;57143;55.940;37.496;2022-09-09T01:50:25;5.03;;;1.20;;
69847;SDS011;57143;55.940;37.496;2022-09-09T01:52:53;5.60;;;1.30;;
69847;SDS011;57143;55.940;37.496;2022-09-09T01:55:26;6.07;;;1.15;;
69847;SDS011;57143;55.940;37.496;2022-09-09T01:57:58;5.50;;;1.30;;
69847;SDS011;57143;55.940;37.496;2022-09-09T02:00:39;5.67;;;1.33;;
69847;SDS011;57143;55.940;37.496;2022-09-09T02:03:14;4.93;;;1.30;;
69847;SDS011;57143;55.940;37.496;2022-09-09T02:05:49;4.60;;;1.20;;
69847;SDS011;57143;55.940;37.496;2022-09-09T02:08:26;5.25;;;1.45;;
69847;SDS011;57143;55.940;37.496;2022-09-09T02:10:58;4.28;;;1.10;;
69847;SDS011;57143;55.940;37.496;2022-09-09T02:13:33;7.77;;;1.33;;
69847;SDS011;57143;55.940;37.496;2022-09-09T02:16:04;5.40;;;1.27;;
69847;SDS011;57143;55.940;37.496;2022-09-09T02:18:35;6.07;;;1.58;;
69847;SDS011;57143;55.940;37.496;2022-09-09T02:21:07;5.28;;;1.40;;
69847;SDS011;57143;55.940;37.496;2022-09-09T02:23:37;4.85;;;1.30;;
69847;SDS011;57143;55.940;37.496;2022-09-09T02:26:06;4.47;;;0.97;;
69847;SDS011;57143;55.940;37.496;2022-09-09T02:28:36;6.05;;;1.30;;
69847;SDS011;57143;55.940;37.496;2022-09-09T02:31:05;4.93;;;1.05;;
69847;SDS011;57143;55.940;37.496;2022-09-09T02:33:33;7.28;;;1.48;;
69847;SDS011;57143;55.940;37.496;2022-09-09T02:36:06;4.35;;;1.10;;
69847;SDS011;57143;55.940;37.496;2022-09-09T02:38:40;6.23;;;1.20;;
69847;SDS011;57143;55.940;37.496;2022-09-09T02:41:15;5.80;;;1.50;;
69847;SDS011;57143;55.940;37.496;2022-09-09T02:43:44;4.40;;;1.00;;
69847;SDS011;57143;55.940;37.496;2022-09-09T02:46:15;5.60;;;1.20;;
69847;SDS011;57143;55.940;37.496;2022-09-09T02:48:57;5.25;;;1.13;;
69847;SDS011;57143;55.940;37.496;2022-09-09T02:51:28;5.00;;;1.10;;
69847;SDS011;57143;55.940;37.496;2022-09-09T02:54:04;5.50;;;1.10;;
69847;SDS011;57143;55.940;37.496;2022-09-09T02:56:40;4.70;;;1.10;;
69847;SDS011;57143;55.940;37.496;2022-09-09T02:59:14;5.03;;;1.15;;
69847;SDS011;57143;55.940;37.496;2022-09-09T03:01:41;6.10;;;1.33;;
69847;SDS011;57143;55.940;37.496;2022-09-09T03:04:09;6.40;;;1.40;;
69847;SDS011;57143;55.940;37.496;2022-09-09T03:06:36;5.30;;;1.20;;
69847;SDS011;57143;55.940;37.496;2022-09-09T03:09:03;5.00;;;1.20;;
69847;SDS011;57143;55.940;37.496;2022-09-09T03:11:30;6.88;;;1.42;;
69847;SDS011;57143;55.940;37.496;2022-09-09T03:13:57;5.75;;;1.10;;
69847;SDS011;57143;55.940;37.496;2022-09-09T03:16:25;5.63;;;1.10;;
69847;SDS011;57143;55.940;37.496;2022-09-09T03:18:52;4.95;;;1.17;;
69847;SDS011;57143;55.940;37.496;2022-09-09T03:21:19;5.35;;;1.35;;
69847;SDS011;57143;55.940;37.496;2022-09-09T03:23:46;7.07;;;1.10;;
69847;SDS011;57143;55.940;37.496;2022-09-09T03:26:13;6.65;;;1.30;;
69847;SDS011;57143;55.940;37.496;2022-09-09T03:28:41;5.33;;;1.10;;
69847;SDS011;57143;55.940;37.496;2022-09-09T03:31:09;6.93;;;1.15;;
69847;SDS011;57143;55.940;37.496;2022-09-09T03:33:37;7.45;;;1.50;;
69847;SDS011;57143;55.940;37.496;2022-09-09T03:36:06;5.55;;;1.30;;
69847;SDS011;57143;55.940;37.496;2022-09-09T03:38:35;5.53;;;1.17;;
69847;SDS011;57143;55.940;37.496;2022-09-09T03:41:02;5.17;;;1.10;;
69847;SDS011;57143;55.940;37.496;2022-09-09T03:43:31;5.38;;;1.02;;
69847;SDS011;57143;55.940;37.496;2022-09-09T03:45:58;5.03;;;0.90;;
69847;SDS011;57143;55.940;37.496;2022-09-09T03:48:25;5.38;;;0.95;;
69847;SDS011;57143;55.940;37.496;2022-09-09T03:50:54;3.80;;;0.88;;
69847;SDS011;57143;55.940;37.496;2022-09-09T03:53:24;5.70;;;1.10;;
69847;SDS011;57143;55.940;37.496;2022-09-09T03:55:52;4.90;;;0.90;;
69847;SDS011;57143;55.940;37.496;2022-09-09T03:58:21;4.40;;;0.80;;
69847;SDS011;57143;55.940;37.496;2022-09-09T04:00:55;4.95;;;1.27;;
69847;SDS011;57143;55.940;37.496;2022-09-09T04:03:23;6.00;;;1.00;;
69847;SDS011;57143;55.940;37.496;2022-09-09T04:05:50;4.67;;;1.20;;
69847;SDS011;57143;55.940;37.496;2022-09-09T04:08:19;5.68;;;1.40;;
69847;SDS011;57143;55.940;37.496;2022-09-09T04:10:47;4.82;;;1.48;;
69847;SDS011;57143;55.940;37.496;2022-09-09T04:13:16;4.40;;;1.10;;
69847;SDS011;57143;55.940;37.496;2022-09-09T04:15:49;4.85;;;1.10;;
69847;SDS011;57143;55.940;37.496;2022-09-09T04:18:18;4.60;;;1.10;;
69847;SDS011;57143;55.940;37.496;2022-09-09T04:20:46;5.38;;;1.13;;
69847;SDS011;57143;55.940;37.496;2022-09-09T04:23:14;4.25;;;1.10;;
69847;SDS011;57143;55.940;37.496;2022-09-09T04:25:45;5.45;;;1.17;;
69847;SDS011;57143;55.940;37.496;2022-09-09T04:28:12;4.10;;;1.02;;
69847;SDS011;57143;55.940;37.496;2022-09-09T04:30:39;4.00;;;1.20;;
69847;SDS011;57143;55.940;37.496;2022-09-09T04:33:07;6.55;;;1.27;;
69847;SDS011;57143;55.940;37.496;2022-09-09T04:35:34;4.22;;;1.08;;
69847;SDS011;57143;55.940;37.496;2022-09-09T04:38:02;5.15;;;1.40;;
69847;SDS011;57143;55.940;37.496;2022-09-09T04:40:29;4.72;;;1.05;;
69847;SDS011;57143;55.940;37.496;2022-09-09T04:42:58;3.77;;;0.90;;
69847;SDS011;57143;55.940;37.496;2022-09-09T04:45:26;4.40;;;0.95;;
69847;SDS011;57143;55.940;37.496;2022-09-09T04:47:53;3.88;;;0.90;;
69847;SDS011;57143;55.940;37.496;2022-09-09T04:50:20;4.65;;;0.80;;
69847;SDS011;57143;55.940;37.496;2022-09-09T04:52:47;4.40;;;1.00;;
69847;SDS011;57143;55.940;37.496;2022-09-09T04:55:15;6.10;;;1.20;;
69847;SDS011;57143;55.940;37.496;2022-09-09T04:57:42;4.88;;;1.00;;
69847;SDS011;57143;55.940;37.496;2022-09-09T05:00:11;5.35;;;1.10;;
69847;SDS011;57143;55.940;37.496;2022-09-09T05:02:39;4.50;;;0.80;;
69847;SDS011;57143;55.940;37.496;2022-09-09T05:05:07;3.90;;;0.90;;
69847;SDS011;57143;55.940;37.496;2022-09-09T05:07:36;5.40;;;1.00;;
69847;SDS011;57143;55.940;37.496;2022-09-09T05:10:03;4.05;;;0.90;;
69847;SDS011;57143;55.940;37.496;2022-09-09T05:12:31;4.35;;;0.93;;
69847;SDS011;57143;55.940;37.496;2022-09-09T05:14:58;4.00;;;1.00;;
69847;SDS011;57143;55.940;37.496;2022-09-09T05:17:26;5.47;;;1.08;;
69847;SDS011;57143;55.940;37.496;2022-09-09T05:19:54;5.40;;;1.00;;
69847;SDS011;57143;55.940;37.496;2022-09-09T05:22:21;4.18;;;1.10;;
69847;SDS011;57143;55.940;37.496;2022-09-09T05:24:48;4.90;;;0.90;;
69847;SDS011;57143;55.940;37.496;2022-09-09T05:27:16;4.22;;;0.93;;
69847;SDS011;57143;55.940;37.496;2022-09-09T05:29:44;4.72;;;0.90;;
69847;SDS011;57143;55.940;37.496;2022-09-09T05:32:11;4.50;;;1.10;;
69847;SDS011;57143;55.940;37.496;2022-09-09T05:34:42;4.15;;;0.90;;
69847;SDS011;57143;55.940;37.496;2022-09-09T05:37:09;3.50;;;0.80;;
69847;SDS011;57143;55.940;37.496;2022-09-09T05:39:36;4.20;;;1.10;;
69847;SDS011;57143;55.940;37.496;2022-09-09T05:42:03;4.13;;;0.98;;
69847;SDS011;57143;55.940;37.496;2022-09-09T05:44:31;4.03;;;0.90;;
69847;SDS011;57143;55.940;37.496;2022-09-09T05:46:58;3.90;;;1.00;;
69847;SDS011;57143;55.940;37.496;2022-09-09T05:49:25;4.00;;;1.00;;
69847;SDS011;57143;55.940;37.496;2022-09-09T05:51:53;6.28;;;1.08;;
69847;SDS011;57143;55.940;37.496;2022-09-09T05:54:20;3.55;;;1.00;;
69847;SDS011;57143;55.940;37.496;2022-09-09T05:56:47;4.00;;;0.90;;
69847;SDS011;57143;55.940;37.496;2022-09-09T05:59:18;4.45;;;1.15;;
69847;SDS011;57143;55.940;37.496;2022-09-09T06:01:45;4.28;;;1.05;;
69847;SDS011;57143;55.940;37.496;2022-09-09T06:04:12;3.83;;;0.90;;
69847;SDS011;57143;55.940;37.496;2022-09-09T06:06:40;3.38;;;0.80;;
69847;SDS011;57143;55.940;37.496;2022-09-09T06:09:08;4.83;;;0.90;;
69847;SDS011;57143;55.940;37.496;2022-09-09T06:11:37;5.10;;;0.90;;
69847;SDS011;57143;55.940;37.496;2022-09-09T06:14:05;3.65;;;0.77;;
69847;SDS011;57143;55.940;37.496;2022-09-09T06:16:32;4.10;;;1.10;;
69847;SDS011;57143;55.940;37.496;2022-09-09T06:19:00;3.55;;;0.80;;
69847;SDS011;57143;55.940;37.496;2022-09-09T06:21:28;4.67;;;1.00;;
69847;SDS011;57143;55.940;37.496;2022-09-09T06:23:57;3.65;;;0.90;;
69847;SDS011;57143;55.940;37.496;2022-09-09T06:26:27;4.20;;;0.80;;
69847;SDS011;57143;55.940;37.496;2022-09-09T06:28:56;4.70;;;1.05;;
69847;SDS011;57143;55.940;37.496;2022-09-09T06:31:24;4.20;;;1.08;;
69847;SDS011;57143;55.940;37.496;2022-09-09T06:33:55;4.30;;;1.10;;
69847;SDS011;57143;55.940;37.496;2022-09-09T06:36:24;4.07;;;1.10;;
69847;SDS011;57143;55.940;37.496;2022-09-09T06:38:53;3.72;;;0.90;;
69847;SDS011;57143;55.940;37.496;2022-09-09T06:41:20;3.80;;;0.90;;
69847;SDS011;57143;55.940;37.496;2022-09-09T06:43:50;4.85;;;1.10;;
69847;SDS011;57143;55.940;37.496;2022-09-09T06:46:17;4.63;;;0.90;;
69847;SDS011;57143;55.940;37.496;2022-09-09T06:48:46;5.30;;;0.80;;
69847;SDS011;57143;55.940;37.496;2022-09-09T06:51:14;4.60;;;0.93;;
69847;SDS011;57143;55.940;37.496;2022-09-09T06:53:43;3.60;;;0.70;;
69847;SDS011;57143;55.940;37.496;2022-09-09T06:56:17;4.03;;;0.90;;
69847;SDS011;57143;55.940;37.496;2022-09-09T06:58:50;3.90;;;0.70;;
69847;SDS011;57143;55.940;37.496;2022-09-09T07:01:18;3.30;;;0.70;;
69847;SDS011;57143;55.940;37.496;2022-09-09T07:03:47;5.63;;;0.90;;
69847;SDS011;57143;55.940;37.496;2022-09-09T07:06:16;4.85;;;1.10;;
69847;SDS011;57143;55.940;37.496;2022-09-09T07:08:48;3.60;;;0.85;;
69847;SDS011;57143;55.940;37.496;2022-09-09T07:11:16;5.20;;;0.80;;
69847;SDS011;57143;55.940;37.496;2022-09-09T07:13:45;4.50;;;1.05;;
69847;SDS011;57143;55.940;37.496;2022-09-09T07:16:14;4.03;;;0.82;;
69847;SDS011;57143;55.940;37.496;2022-09-09T07:18:43;5.18;;;0.80;;
69847;SDS011;57143;55.940;37.496;2022-09-09T07:21:11;4.63;;;0.70;;
69847;SDS011;57143;55.940;37.496;2022-09-09T07:23:39;6.00;;;0.90;;
69847;SDS011;57143;55.940;37.496;2022-09-09T07:26:10;3.78;;;0.80;;
69847;SDS011;57143;55.940;37.496;2022-09-09T07:28:39;4.10;;;0.90;;
69847;SDS011;57143;55.940;37.496;2022-09-09T07:31:06;3.60;;;0.80;;
69847;SDS011;57143;55.940;37.496;2022-09-09T07:33:42;3.60;;;0.73;;
69847;SDS011;57143;55.940;37.496;2022-09-09T07:36:10;3.77;;;0.70;;
69847;SDS011;57143;55.940;37.496;2022-09-09T07:38:40;3.88;;;1.00;;
69847;SDS011;57143;55.940;37.496;2022-09-09T07:41:09;3.67;;;0.90;;
69847;SDS011;57143;55.940;37.496;2022-09-09T07:43:38;3.55;;;0.80;;
69847;SDS011;57143;55.940;37.496;2022-09-09T07:46:06;4.38;;;0.73;;
69847;SDS011;57143;55.940;37.496;2022-09-09T07:48:33;4.20;;;0.80;;
69847;SDS011;57143;55.940;37.496;2022-09-09T07:51:06;3.95;;;0.90;;
69847;SDS011;57143;55.940;37.496;2022-09-09T07:53:35;3.25;;;0.70;;
69847;SDS011;57143;55.940;37.496;2022-09-09T07:56:04;4.15;;;0.93;;
69847;SDS011;57143;55.940;37.496;2022-09-09T07:58:33;4.22;;;1.00;;
69847;SDS011;57143;55.940;37.496;2022-09-09T08:01:00;4.17;;;0.80;;
69847;SDS011;57143;55.940;37.496;2022-09-09T08:03:27;4.00;;;0.70;;
69847;SDS011;57143;55.940;37.496;2022-09-09T08:05:59;3.85;;;0.93;;
69847;SDS011;57143;55.940;37.496;2022-09-09T08:08:29;3.65;;;0.80;;
69847;SDS011;57143;55.940;37.496;2022-09-09T08:11:01;3.10;;;0.70;;
69847;SDS011;57143;55.940;37.496;2022-09-09T08:13:29;4.13;;;0.70;;
69847;SDS011;57143;55.940;37.496;2022-09-09T08:16:03;3.70;;;0.77;;
69847;SDS011;57143;55.940;37.496;2022-09-09T08:18:32;4.20;;;0.73;;
69847;SDS011;57143;55.940;37.496;2022-09-09T08:21:04;3.90;;;0.85;;
69847;SDS011;57143;55.940;37.496;2022-09-09T08:23:33;4.90;;;0.90;;
69847;SDS011;57143;55.940;37.496;2022-09-09T08:26:04;5.13;;;1.23;;
69847;SDS011;57143;55.940;37.496;2022-09-09T08:28:34;4.15;;;0.80;;
69847;SDS011;57143;55.940;37.496;2022-09-09T08:31:08;5.38;;;1.00;;
69847;SDS011;57143;55.940;37.496;2022-09-09T08:33:36;5.13;;;1.10;;
69847;SDS011;57143;55.940;37.496;2022-09-09T08:36:05;3.58;;;0.73;;
69847;SDS011;57143;55.940;37.496;2022-09-09T08:38:35;3.57;;;0.80;;
69847;SDS011;57143;55.940;37.496;2022-09-09T08:44:00;4.57;;;0.75;;
69847;SDS011;57143;55.940;37.496;2022-09-09T08:46:34;4.53;;;1.02;;
69847;SDS011;57143;55.940;37.496;2022-09-09T08:49:13;4.53;;;0.90;;
69847;SDS011;57143;55.940;37.496;2022-09-09T08:51:51;3.77;;;0.90;;
69847;SDS011;57143;55.940;37.496;2022-09-09T08:54:24;4.55;;;1.10;;
69847;SDS011;57143;55.940;37.496;2022-09-09T08:56:59;4.75;;;1.13;;
69847;SDS011;57143;55.940;37.496;2022-09-09T08:59:26;3.70;;;0.80;;
69847;SDS011;57143;55.940;37.496;2022-09-09T09:01:58;2.83;;;0.60;;
69847;SDS011;57143;55.940;37.496;2022-09-09T09:04:38;3.70;;;0.70;;
69847;SDS011;57143;55.940;37.496;2022-09-09T09:07:27;4.18;;;0.77;;
69847;SDS011;57143;55.940;37.496;2022-09-09T09:10:12;4.55;;;0.90;;
69847;SDS011;57143;55.940;37.496;2022-09-09T09:12:51;3.88;;;0.70;;
69847;SDS011;57143;55.940;37.496;2022-09-09T09:15:20;3.90;;;0.75;;
69847;SDS011;57143;55.940;37.496;2022-09-09T09:17:50;3.33;;;0.70;;
69847;SDS011;57143;55.940;37.496;2022-09-09T09:20:18;4.38;;;0.95;;
69847;SDS011;57143;55.940;37.496;2022-09-09T09:22:51;4.05;;;0.95;;
69847;SDS011;57143;55.940;37.496;2022-09-09T09:25:21;4.85;;;0.88;;
69847;SDS011;57143;55.940;37.496;2022-09-09T09:27:50;3.42;;;0.65;;
69847;SDS011;57143;55.940;37.496;2022-09-09T09:30:26;3.60;;;0.80;;
69847;SDS011;57143;55.940;37.496;2022-09-09T09:32:58;5.35;;;0.68;;
69847;SDS011;57143;55.940;37.496;2022-09-09T09:35:29;2.90;;;0.60;;
69847;SDS011;57143;55.940;37.496;2022-09-09T09:37:56;4.07;;;0.90;;
69847;SDS011;57143;55.940;37.496;2022-09-09T09:40:24;4.57;;;0.90;;
69847;SDS011;57143;55.940;37.496;2022-09-09T09:42:52;4.13;;;0.80;;
69847;SDS011;57143;55.940;37.496;2022-09-09T09:45:25;3.72;;;0.70;;
69847;SDS011;57143;55.940;37.496;2022-09-09T09:48:01;4.38;;;0.70;;
69847;SDS011;57143;55.940;37.496;2022-09-09T09:50:30;6.00;;;0.90;;
69847;SDS011;57143;55.940;37.496;2022-09-09T09:52:59;3.17;;;0.50;;
69847;SDS011;57143;55.940;37.496;2022-09-09T09:55:31;4.13;;;0.90;;
69847;SDS011;57143;55.940;37.496;2022-09-09T09:58:02;3.28;;;0.90;;
69847;SDS011;57143;55.940;37.496;2022-09-09T10:00:30;3.63;;;0.85;;
69847;SDS011;57143;55.940;37.496;2022-09-09T10:02:58;4.60;;;0.77;;
69847;SDS011;57143;55.940;37.496;2022-09-09T10:05:27;4.25;;;0.98;;
69847;SDS011;57143;55.940;37.496;2022-09-09T10:08:02;4.60;;;1.17;;
69847;SDS011;57143;55.940;37.496;2022-09-09T10:10:37;4.22;;;0.80;;
69847;SDS011;57143;55.940;37.496;2022-09-09T10:13:15;4.60;;;1.20;;
69847;SDS011;57143;55.940;37.496;2022-09-09T10:15:48;4.28;;;0.70;;
69847;SDS011;57143;55.940;37.496;2022-09-09T10:18:31;3.72;;;0.80;;
69847;SDS011;57143;55.940;37.496;2022-09-09T10:21:16;4.37;;;1.07;;
69847;SDS011;57143;55.940;37.496;2022-09-09T10:23:56;3.97;;;0.95;;
69847;SDS011;57143;55.940;37.496;2022-09-09T10:26:39;3.85;;;0.90;;
69847;SDS011;57143;55.940;37.496;2022-09-09T10:32:20;3.40;;;0.80;;
69847;SDS011;57143;55.940;37.496;2022-09-09T10:35:02;3.80;;;0.70;;
69847;SDS011;57143;55.940;37.496;2022-09-09T10:37:46;4.35;;;0.90;;
69847;SDS011;57143;55.940;37.496;2022-09-09T10:40:26;4.07;;;1.00;;
69847;SDS011;57143;55.940;37.496;2022-09-09T10:43:01;3.60;;;0.80;;
69847;SDS011;57143;55.940;37.496;2022-09-09T10:45:41;4.05;;;0.80;;
69847;SDS011;57143;55.940;37.496;2022-09-09T10:48:23;3.93;;;0.70;;
69847;SDS011;57143;55.940;37.496;2022-09-09T10:51:00;5.50;;;1.00;;
69847;SDS011;57143;55.940;37.496;2022-09-09T10:53:42;5.72;;;0.88;;
69847;SDS011;57143;55.940;37.496;2022-09-09T10:56:19;4.05;;;0.90;;
69847;SDS011;57143;55.940;37.496;2022-09-09T10:58:51;4.45;;;0.90;;
69847;SDS011;57143;55.940;37.496;2022-09-09T11:01:22;4.40;;;0.90;;
69847;SDS011;57143;55.940;37.496;2022-09-09T11:03:53;3.80;;;1.00;;
69847;SDS011;57143;55.940;37.496;2022-09-09T11:06:25;4.15;;;0.80;;
69847;SDS011;57143;55.940;37.496;2022-09-09T11:08:57;4.43;;;1.10;;
69847;SDS011;57143;55.940;37.496;2022-09-09T11:11:29;3.65;;;0.70;;
69847;SDS011;57143;55.940;37.496;2022-09-09T11:14:03;5.23;;;0.90;;
69847;SDS011;57143;55.940;37.496;2022-09-09T11:16:36;4.20;;;1.00;;
69847;SDS011;57143;55.940;37.496;2022-09-09T11:19:11;3.50;;;0.60;;
69847;SDS011;57143;55.940;37.496;2022-09-09T11:21:44;4.32;;;0.73;;
69847;SDS011;57143;55.940;37.496;2022-09-09T11:24:14;3.85;;;0.82;;
69847;SDS011;57143;55.940;37.496;2022-09-09T11:26:49;3.13;;;0.70;;
69847;SDS011;57143;55.940;37.496;2022-09-09T11:29:36;4.55;;;1.08;;
69847;SDS011;57143;55.940;37.496;2022-09-09T11:32:34;4.90;;;1.00;;
69847;SDS011;57143;55.940;37.496;2022-09-09T11:35:21;3.67;;;0.80;;
69847;SDS011;57143;55.940;37.496;2022-09-09T11:38:04;3.85;;;0.70;;
69847;SDS011;57143;55.940;37.496;2022-09-09T11:40:44;4.33;;;0.70;;
69847;SDS011;57143;55.940;37.496;2022-09-09T11:43:13;5.28;;;0.80;;
69847;SDS011;57143;55.940;37.496;2022-09-09T11:45:51;4.60;;;0.80;;
69847;SDS011;57143;55.940;37.496;2022-09-09T11:48:23;4.13;;;0.88;;
69847;SDS011;57143;55.940;37.496;2022-09-09T11:50:58;6.03;;;0.98;;
69847;SDS011;57143;55.940;37.496;2022-09-09T11:53:26;4.20;;;0.93;;
69847;SDS011;57143;55.940;37.496;2022-09-09T11:56:00;3.67;;;0.70;;
69847;SDS011;57143;55.940;37.496;2022-09-09T11:58:41;6.47;;;0.80;;
69847;SDS011;57143;55.940;37.496;2022-09-09T12:04:25;3.42;;;0.73;;
69847;SDS011;57143;55.940;37.496;2022-09-09T12:06:59;3.00;;;0.60;;
69847;SDS011;57143;55.940;37.496;2022-09-09T12:09:33;3.35;;;0.70;;
69847;SDS011;57143;55.940;37.496;2022-09-09T12:12:28;3.35;;;0.70;;
69847;SDS011;57143;55.940;37.496;2022-09-09T12:14:58;3.75;;;0.70;;
69847;SDS011;57143;55.940;37.496;2022-09-09T12:17:30;3.40;;;0.70;;
69847;SDS011;57143;55.940;37.496;2022-09-09T12:20:06;3.47;;;0.83;;
69847;SDS011;57143;55.940;37.496;2022-09-09T12:22:41;3.60;;;0.90;;
69847;SDS011;57143;55.940;37.496;2022-09-09T12:25:22;3.92;;;0.90;;
69847;SDS011;57143;55.940;37.496;2022-09-09T12:28:03;4.53;;;1.02;;
69847;SDS011;57143;55.940;37.496;2022-09-09T12:30:41;3.63;;;0.90;;
69847;SDS011;57143;55.940;37.496;2022-09-09T12:33:17;4.40;;;1.10;;
69847;SDS011;57143;55.940;37.496;2022-09-09T12:35:48;4.18;;;0.93;;
69847;SDS011;57143;55.940;37.496;2022-09-09T12:38:24;4.03;;;0.90;;
69847;SDS011;57143;55.940;37.496;2022-09-09T12:40:57;5.18;;;1.10;;
69847;SDS011;57143;55.940;37.496;2022-09-09T12:43:28;4.28;;;1.13;;
69847;SDS011;57143;55.940;37.496;2022-09-09T12:45:56;3.53;;;0.77;;
69847;SDS011;57143;55.940;37.496;2022-09-09T12:48:33;3.80;;;0.90;;
69847;SDS011;57143;55.940;37.496;2022-09-09T12:51:16;4.45;;;0.98;;
69847;SDS011;57143;55.940;37.496;2022-09-09T12:53:45;5.13;;;0.98;;
69847;SDS011;57143;55.940;37.496;2022-09-09T12:56:22;3.97;;;0.88;;
69847;SDS011;57143;55.940;37.496;2022-09-09T12:58:53;3.73;;;0.90;;
69847;SDS011;57143;55.940;37.496;2022-09-09T13:01:22;4.20;;;0.80;;
69847;SDS011;57143;55.940;37.496;2022-09-09T13:03:53;3.55;;;0.70;;
69847;SDS011;57143;55.940;37.496;2022-09-09T13:06:21;3.55;;;0.90;;
69847;SDS011;57143;55.940;37.496;2022-09-09T13:08:49;3.90;;;0.70;;
69847;SDS011;57143;55.940;37.496;2022-09-09T13:11:17;4.20;;;0.73;;
69847;SDS011;57143;55.940;37.496;2022-09-09T13:13:50;4.03;;;0.82;;
69847;SDS011;57143;55.940;37.496;2022-09-09T13:16:19;3.67;;;0.77;;
69847;SDS011;57143;55.940;37.496;2022-09-09T13:18:49;4.53;;;0.70;;
69847;SDS011;57143;55.940;37.496;2022-09-09T13:21:18;4.07;;;0.98;;
69847;SDS011;57143;55.940;37.496;2022-09-09T13:23:48;3.60;;;0.80;;
69847;SDS011;57143;55.940;37.496;2022-09-09T13:26:21;5.10;;;0.80;;
69847;SDS011;57143;55.940;37.496;2022-09-09T13:28:51;5.90;;;0.80;;
69847;SDS011;57143;55.940;37.496;2022-09-09T13:31:20;4.55;;;1.10;;
69847;SDS011;57143;55.940;37.496;2022-09-09T13:33:48;6.45;;;1.38;;
69847;SDS011;57143;55.940;37.496;2022-09-09T13:36:26;6.80;;;1.70;;
69847;SDS011;57143;55.940;37.496;2022-09-09T13:38:56;5.03;;;1.13;;
69847;SDS011;57143;55.940;37.496;2022-09-09T13:41:27;4.57;;;1.00;;
69847;SDS011;57143;55.940;37.496;2022-09-09T13:43:57;7.25;;;1.10;;
69847;SDS011;57143;55.940;37.496;2022-09-09T13:46:27;4.90;;;1.00;;
69847;SDS011;57143;55.940;37.496;2022-09-09T13:48:59;2.80;;;0.60;;
69847;SDS011;57143;55.940;37.496;2022-09-09T13:51:35;3.83;;;0.70;;
69847;SDS011;57143;55.940;37.496;2022-09-09T13:54:04;4.88;;;0.70;;
69847;SDS011;57143;55.940;37.496;2022-09-09T13:56:32;3.30;;;0.60;;
69847;SDS011;57143;55.940;37.496;2022-09-09T13:59:00;3.10;;;0.57;;
69847;SDS011;57143;55.940;37.496;2022-09-09T14:01:27;7.30;;;0.90;;
69847;SDS011;57143;55.940;37.496;2022-09-09T14:03:55;3.80;;;0.80;;
69847;SDS011;57143;55.940;37.496;2022-09-09T14:06:22;4.28;;;0.80;;
69847;SDS011;57143;55.940;37.496;2022-09-09T14:08:51;3.65;;;0.70;;
69847;SDS011;57143;55.940;37.496;2022-09-09T14:11:19;5.55;;;0.85;;
69847;SDS011;57143;55.940;37.496;2022-09-09T14:13:47;4.30;;;1.03;;
69847;SDS011;57143;55.940;37.496;2022-09-09T14:16:15;4.18;;;1.00;;
69847;SDS011;57143;55.940;37.496;2022-09-09T14:18:42;4.72;;;0.98;;
69847;SDS011;57143;55.940;37.496;2022-09-09T14:21:10;4.80;;;1.40;;
69847;SDS011;57143;55.940;37.496;2022-09-09T14:23:37;4.65;;;1.30;;
69847;SDS011;57143;55.940;37.496;2022-09-09T14:26:07;5.37;;;1.60;;
69847;SDS011;57143;55.940;37.496;2022-09-09T14:28:35;5.03;;;1.38;;
69847;SDS011;57143;55.940;37.496;2022-09-09T14:31:03;7.40;;;1.52;;
69847;SDS011;57143;55.940;37.496;2022-09-09T14:33:30;5.38;;;1.60;;
69847;SDS011;57143;55.940;37.496;2022-09-09T14:35:58;6.38;;;1.70;;
69847;SDS011;57143;55.940;37.496;2022-09-09T14:38:28;5.33;;;1.63;;
69847;SDS011;57143;55.940;37.496;2022-09-09T14:40:56;4.68;;;1.15;;
69847;SDS011;57143;55.940;37.496;2022-09-09T14:43:25;5.50;;;1.52;;
69847;SDS011;57143;55.940;37.496;2022-09-09T14:45:53;4.43;;;1.10;;
69847;SDS011;57143;55.940;37.496;2022-09-09T14:48:20;7.03;;;2.20;;
69847;SDS011;57143;55.940;37.496;2022-09-09T14:50:47;5.47;;;1.60;;
69847;SDS011;57143;55.940;37.496;2022-09-09T14:53:14;6.13;;;1.65;;
69847;SDS011;57143;55.940;37.496;2022-09-09T14:55:43;8.38;;;1.23;;
69847;SDS011;57143;55.940;37.496;2022-09-09T14:58:11;6.25;;;1.40;;
69847;SDS011;57143;55.940;37.496;2022-09-09T15:00:40;6.20;;;1.48;;
69847;SDS011;57143;55.940;37.496;2022-09-09T15:03:07;5.20;;;1.13;;
69847;SDS011;57143;55.940;37.496;2022-09-09T15:05:35;4.70;;;1.00;;
69847;SDS011;57143;55.940;37.496;2022-09-09T15:08:03;5.50;;;1.00;;